Terminal Aerodrome Forecast
Issued by NWS

Home | Current Version | Previous Version | Graphics & Text | Print | Product List | Glossary On
Versions: 1 2 3 4 5 6 7 8 9 10 11 12 13 14 15 16
590
FTUS43 KMPX 071139
TAFRWF
TAF
KRWF 071139Z 0712/0812 28018G25KT P6SM OVC050
     FM071800 29020G30KT 6SM BR VCSH OVC030
     FM072000 30028G37KT 3SM -SN BLSN OVC020
     FM080300 32030G42KT 1SM -SN BLSN OVC012=

USA.gov is the U.S. government's official web portal to all federal, state and local government web resources and services.